createdAt,value
2023-01-13T00:00:06.496Z,27.92
2023-01-13T00:02:33.270Z,23.17
2023-01-13T00:04:59.692Z,24.95
2023-01-13T00:07:26.101Z,32.63
2023-01-13T00:09:52.428Z,34.60
2023-01-13T00:12:18.853Z,26.15
2023-01-13T00:14:45.213Z,24.38
2023-01-13T00:17:11.779Z,20.48
2023-01-13T00:19:38.172Z,23.80
2023-01-13T00:22:04.591Z,21.55
2023-01-13T00:24:30.941Z,27.08
2023-01-13T00:26:57.315Z,38.67
2023-01-13T00:29:23.657Z,24.42
2023-01-13T00:31:51.193Z,23.08
2023-01-13T00:34:17.613Z,23.80
2023-01-13T00:36:44.039Z,21.73
2023-01-13T00:39:10.513Z,27.02
2023-01-13T00:41:55.455Z,24.75
2023-01-13T00:46:48.159Z,20.08
2023-01-13T00:49:14.594Z,22.08
2023-01-13T00:51:40.918Z,20.17
2023-01-13T00:54:07.803Z,22.40
2023-01-13T00:56:40.038Z,25.95
2023-01-13T00:59:07.800Z,27.40
2023-01-13T01:01:34.535Z,19.90
2023-01-13T01:04:00.953Z,23.65
2023-01-13T01:06:28.068Z,22.08
2023-01-13T01:08:55.465Z,24.45
2023-01-13T01:11:27.230Z,23.83
2023-01-13T01:13:56.340Z,33.20
2023-01-13T01:16:25.419Z,22.05
2023-01-13T01:18:53.873Z,24.80
2023-01-13T01:21:21.595Z,33.47
2023-01-13T01:23:48.129Z,30.08
2023-01-13T01:26:18.335Z,25.73
2023-01-13T01:28:45.323Z,28.42
2023-01-13T01:31:23.576Z,33.72
2023-01-13T01:33:50.118Z,38.03
2023-01-13T01:36:18.338Z,44.00
2023-01-13T01:38:45.888Z,30.98
2023-01-13T01:41:15.452Z,37.80
2023-01-13T01:44:07.720Z,34.08
2023-01-13T01:46:44.449Z,30.02
2023-01-13T01:49:21.311Z,29.15
2023-01-13T01:52:00.710Z,26.20
2023-01-13T01:54:40.276Z,31.27
2023-01-13T01:57:10.852Z,24.38
2023-01-13T01:59:38.507Z,23.65
2023-01-13T02:02:05.677Z,27.42
2023-01-13T02:04:37.724Z,19.23
2023-01-13T02:07:04.365Z,27.48
2023-01-13T02:09:31.055Z,35.70
2023-01-13T02:12:15.852Z,22.38
2023-01-13T02:14:43.092Z,26.00
2023-01-13T02:17:21.733Z,26.83
2023-01-13T02:20:15.436Z,21.73
2023-01-13T02:22:57.057Z,23.58
2023-01-13T02:25:58.721Z,24.42
2023-01-13T02:29:06.557Z,18.13
2023-01-13T02:31:44.658Z,15.73
2023-01-13T02:34:22.687Z,23.10
2023-01-13T02:37:19.465Z,31.20
2023-01-13T02:39:55.864Z,25.63
2023-01-13T02:42:47.195Z,28.70
2023-01-13T02:45:19.238Z,23.20
2023-01-13T02:47:50.121Z,25.17
2023-01-13T02:50:20.656Z,20.90
2023-01-13T02:53:05.803Z,21.15
2023-01-13T02:55:42.962Z,26.15
2023-01-13T02:58:14.631Z,22.13
2023-01-13T03:00:42.613Z,21.98
2023-01-13T03:03:09.091Z,20.27
2023-01-13T03:05:36.525Z,20.10
2023-01-13T03:08:11.263Z,38.53
2023-01-13T03:13:56.389Z,18.85
2023-01-13T03:16:32.063Z,21.15
2023-01-13T03:19:14.269Z,18.90
2023-01-13T03:21:48.697Z,27.98
2023-01-13T03:24:25.717Z,21.25
2023-01-13T03:27:07.797Z,19.50
2023-01-13T03:29:40.683Z,21.83
2023-01-13T03:32:28.188Z,17.67
2023-01-13T03:35:04.368Z,12.80
2023-01-13T03:37:35.902Z,17.52
2023-01-13T03:40:07.508Z,16.02
2023-01-13T03:42:37.310Z,18.38
2023-01-13T03:45:15.389Z,19.15
2023-01-13T03:47:54.288Z,17.13
2023-01-13T03:50:33.405Z,23.70
2023-01-13T03:53:15.180Z,22.05
2023-01-13T03:55:48.481Z,26.35
2023-01-13T03:58:23.346Z,19.95
2023-01-13T04:00:59.922Z,20.63
2023-01-13T04:03:40.928Z,22.10
2023-01-13T04:06:45.107Z,17.13
2023-01-13T04:09:39.611Z,21.27
2023-01-13T04:12:14.297Z,18.27
2023-01-13T04:14:41.544Z,16.77
2023-01-13T04:17:07.925Z,18.83
2023-01-13T04:19:34.531Z,22.52
2023-01-13T04:22:00.924Z,22.40
2023-01-13T04:24:27.374Z,20.50
2023-01-13T04:26:53.890Z,15.35
2023-01-13T04:29:20.319Z,25.65
2023-01-13T04:31:46.750Z,23.33
2023-01-13T04:34:13.323Z,25.25
2023-01-13T04:36:39.939Z,13.77
2023-01-13T04:39:06.459Z,26.13
2023-01-13T04:41:52.808Z,17.42
2023-01-13T04:44:19.398Z,13.73
2023-01-13T04:46:46.182Z,15.43
2023-01-13T04:49:12.656Z,11.13
2023-01-13T04:51:39.053Z,19.40
2023-01-13T04:54:05.543Z,21.67
2023-01-13T04:56:31.966Z,15.88
2023-01-13T04:58:58.350Z,12.77
2023-01-13T05:01:24.815Z,20.80
2023-01-13T05:03:51.210Z,18.45
2023-01-13T05:06:17.610Z,21.85
2023-01-13T05:08:43.998Z,18.02
2023-01-13T05:11:29.187Z,17.45
2023-01-13T05:14:14.055Z,22.63
2023-01-13T05:19:25.246Z,12.35
2023-01-13T05:22:10.352Z,23.00
2023-01-13T05:24:55.199Z,14.52
2023-01-13T05:29:47.928Z,22.30
2023-01-13T05:32:14.344Z,15.27
2023-01-13T05:34:40.693Z,22.98
2023-01-13T05:37:08.243Z,14.93
2023-01-13T05:39:53.020Z,19.17
2023-01-13T05:42:37.779Z,15.57
2023-01-13T05:45:04.683Z,17.25
2023-01-13T05:47:32.209Z,14.50
2023-01-13T05:49:58.678Z,25.17
2023-01-13T05:52:25.172Z,20.65
2023-01-13T05:54:51.585Z,20.27
2023-01-13T05:57:17.951Z,16.48
2023-01-13T05:59:44.367Z,18.85
2023-01-13T06:02:10.731Z,17.70
2023-01-13T06:04:37.212Z,19.50
2023-01-13T06:07:03.696Z,18.63
2023-01-13T06:09:30.139Z,27.60
2023-01-13T06:11:56.548Z,19.27
2023-01-13T06:14:23.224Z,15.93
2023-01-13T06:16:49.901Z,26.80
2023-01-13T06:19:16.280Z,30.48
2023-01-13T06:21:44.903Z,21.50
2023-01-13T06:24:11.361Z,29.75
2023-01-13T06:26:41.431Z,25.40
2023-01-13T06:29:10.041Z,23.48
2023-01-13T06:31:39.439Z,20.58
2023-01-13T06:34:11.990Z,21.08
2023-01-13T06:36:41.869Z,18.83
2023-01-13T06:39:10.901Z,25.00
2023-01-13T06:41:56.358Z,21.75
2023-01-13T06:44:24.318Z,19.02
2023-01-13T06:46:53.877Z,25.17
2023-01-13T06:49:21.738Z,20.13
2023-01-13T06:51:48.693Z,17.15
2023-01-13T06:54:15.081Z,19.90
2023-01-13T06:56:41.532Z,23.02
2023-01-13T06:59:07.942Z,22.50
2023-01-13T07:01:34.454Z,35.15
2023-01-13T07:04:01.159Z,21.60
2023-01-13T07:06:27.525Z,17.95
2023-01-13T07:08:54.097Z,20.75
2023-01-13T07:11:20.698Z,19.98
2023-01-13T07:14:05.633Z,21.30
2023-01-13T07:16:32.203Z,13.77
2023-01-13T07:18:58.569Z,21.30
2023-01-13T07:21:25.095Z,24.15
2023-01-13T07:23:51.465Z,24.98
2023-01-13T07:26:17.865Z,25.25
2023-01-13T07:28:44.361Z,20.92
2023-01-13T07:31:16.530Z,17.85
2023-01-13T07:33:43.087Z,20.77
2023-01-13T07:36:09.895Z,17.98
2023-01-13T07:38:38.379Z,19.38
2023-01-13T07:41:23.363Z,19.42
2023-01-13T07:43:50.549Z,20.83
2023-01-13T07:46:18.118Z,17.35
2023-01-13T07:48:47.098Z,14.32
2023-01-13T07:51:13.543Z,26.05
2023-01-13T07:53:40.066Z,18.38
2023-01-13T07:56:07.294Z,18.58
2023-01-13T07:58:35.466Z,19.40
2023-01-13T08:01:12.085Z,23.90
2023-01-13T08:03:39.753Z,19.48
2023-01-13T08:06:07.052Z,17.77
2023-01-13T08:08:33.595Z,25.42
2023-01-13T08:11:04.435Z,21.30
2023-01-13T08:13:31.198Z,21.27
2023-01-13T08:16:07.078Z,14.27
2023-01-13T08:18:34.943Z,14.63
2023-01-13T08:21:12.046Z,20.02
2023-01-13T08:23:38.727Z,21.52
2023-01-13T08:26:07.927Z,13.98
2023-01-13T08:28:34.702Z,17.13
2023-01-13T08:31:06.310Z,20.05
2023-01-13T08:33:33.913Z,19.80
2023-01-13T08:36:05.148Z,14.77
2023-01-13T08:38:32.104Z,21.17
2023-01-13T08:40:58.941Z,15.57
2023-01-13T08:43:25.418Z,14.52
2023-01-13T08:45:59.526Z,22.40
2023-01-13T08:48:28.549Z,9.48
2023-01-13T08:51:05.509Z,13.23
2023-01-13T08:53:32.071Z,19.63
2023-01-13T08:55:58.463Z,23.48
2023-01-13T08:58:25.136Z,17.73
2023-01-13T09:00:51.640Z,20.00
2023-01-13T09:03:18.168Z,19.33
2023-01-13T09:05:44.647Z,11.80
2023-01-13T09:08:11.113Z,17.17
2023-01-13T09:10:37.625Z,15.88
2023-01-13T09:13:12.746Z,11.13
2023-01-13T09:15:45.256Z,14.02
2023-01-13T09:18:12.483Z,13.43
2023-01-13T09:20:39.327Z,12.65
2023-01-13T09:23:09.701Z,14.88
2023-01-13T09:25:36.913Z,13.98
2023-01-13T09:28:04.971Z,15.07
2023-01-13T09:30:31.711Z,19.67
2023-01-13T09:33:18.957Z,14.27
2023-01-13T09:35:45.493Z,13.43
2023-01-13T09:38:12.181Z,16.77
2023-01-13T09:40:41.399Z,18.75
2023-01-13T09:43:41.858Z,17.35
2023-01-13T09:46:38.849Z,9.40
2023-01-13T09:49:05.519Z,14.02
2023-01-13T09:51:40.876Z,16.65
2023-01-13T09:54:17.255Z,14.77
2023-01-13T09:56:43.697Z,14.05
2023-01-13T09:59:12.187Z,16.73
2023-01-13T10:02:00.431Z,15.25
2023-01-13T10:04:27.765Z,11.73
2023-01-13T10:07:01.333Z,17.33
2023-01-13T10:09:48.654Z,13.30
2023-01-13T10:12:39.023Z,9.52
2023-01-13T10:15:06.303Z,16.13
2023-01-13T10:17:46.932Z,14.27
2023-01-13T10:20:28.950Z,21.95
2023-01-13T10:23:20.275Z,12.18
2023-01-13T10:26:25.371Z,10.82
2023-01-13T10:28:53.646Z,10.45
2023-01-13T10:31:22.124Z,17.50
2023-01-13T10:33:49.342Z,12.02
2023-01-13T10:36:21.573Z,17.40
2023-01-13T10:38:50.410Z,10.65
2023-01-13T10:41:18.719Z,11.13
2023-01-13T10:44:01.218Z,13.43
2023-01-13T10:46:28.796Z,14.52
2023-01-13T10:49:00.644Z,13.50
2023-01-13T10:51:39.050Z,12.90
2023-01-13T10:54:11.639Z,12.48
2023-01-13T10:56:39.882Z,15.50
2023-01-13T10:59:12.963Z,12.73
2023-01-13T11:01:42.664Z,13.98
2023-01-13T11:04:27.415Z,13.43
2023-01-13T11:06:54.217Z,11.25
2023-01-13T11:09:22.565Z,9.90
2023-01-13T11:11:55.908Z,10.60
2023-01-13T11:14:36.899Z,14.07
2023-01-13T11:17:12.202Z,16.42
2023-01-13T11:19:47.061Z,15.80
2023-01-13T11:22:23.304Z,10.02
2023-01-13T11:25:06.006Z,11.23
2023-01-13T11:27:53.050Z,18.20
2023-01-13T11:30:36.491Z,14.05
2023-01-13T11:33:15.006Z,8.90
2023-01-13T11:36:02.633Z,11.43
2023-01-13T11:39:00.345Z,7.82
2023-01-13T11:42:07.720Z,10.43
2023-01-13T11:44:43.365Z,9.40
2023-01-13T11:47:12.712Z,14.60
2023-01-13T11:49:39.265Z,9.80
2023-01-13T11:52:45.863Z,12.88
2023-01-13T11:55:31.006Z,12.88
2023-01-13T11:58:29.057Z,10.73
2023-01-13T12:01:03.620Z,14.90
2023-01-13T12:06:21.545Z,14.30
2023-01-13T12:09:03.276Z,8.25
2023-01-13T12:12:19.404Z,24.77
2023-01-13T12:15:22.206Z,7.97
2023-01-13T12:18:18.984Z,14.95
2023-01-13T12:21:12.822Z,13.95
2023-01-13T12:23:42.243Z,13.80
2023-01-13T12:26:14.040Z,10.35
2023-01-13T12:28:53.653Z,15.63
2023-01-13T12:31:21.985Z,17.00
2023-01-13T12:33:59.391Z,9.82
2023-01-13T12:36:49.506Z,9.02
2023-01-13T12:39:23.372Z,9.57
2023-01-13T12:42:13.727Z,14.40
2023-01-13T12:45:19.943Z,18.00
2023-01-13T12:47:46.461Z,17.52
2023-01-13T12:50:22.196Z,11.70
2023-01-13T12:52:50.407Z,13.98
2023-01-13T12:55:27.312Z,14.38
2023-01-13T12:58:02.810Z,12.95
2023-01-13T13:00:52.760Z,14.65
2023-01-13T13:03:33.973Z,13.82
2023-01-13T13:06:22.935Z,7.80
2023-01-13T13:09:18.527Z,11.13
2023-01-13T13:11:59.576Z,13.60
2023-01-13T13:14:41.412Z,12.43
2023-01-13T13:17:19.963Z,10.30
2023-01-13T13:19:48.775Z,10.23
2023-01-13T13:22:38.145Z,8.05
2023-01-13T13:25:04.519Z,16.75
2023-01-13T13:28:05.917Z,12.52
2023-01-13T13:30:48.691Z,10.73
2023-01-13T13:33:50.322Z,13.50
2023-01-13T13:36:41.599Z,10.90
2023-01-13T13:39:42.880Z,8.13
2023-01-13T13:42:34.737Z,8.55
2023-01-13T13:45:21.321Z,8.48
2023-01-13T13:47:47.846Z,12.30
2023-01-13T13:50:23.725Z,10.75
2023-01-13T13:52:56.490Z,10.70
2023-01-13T13:55:28.430Z,8.45
2023-01-13T13:57:57.512Z,11.13
2023-01-13T14:00:28.084Z,16.63
2023-01-13T14:03:01.429Z,7.55
2023-01-13T14:05:30.807Z,11.43
2023-01-13T14:08:17.377Z,9.15
2023-01-13T14:10:46.239Z,12.00
2023-01-13T14:13:20.160Z,9.23
2023-01-13T14:15:58.355Z,13.38
2023-01-13T14:18:26.296Z,9.68
2023-01-13T14:21:15.496Z,14.00
2023-01-13T14:23:51.164Z,13.25
2023-01-13T14:26:17.676Z,12.75
2023-01-13T14:28:44.985Z,9.93
2023-01-13T14:31:13.441Z,15.82
2023-01-13T14:33:51.666Z,11.75
2023-01-13T14:36:19.846Z,10.50
2023-01-13T14:38:48.941Z,11.60
2023-01-13T14:41:20.521Z,11.80
2023-01-13T14:43:49.351Z,12.27
2023-01-13T14:46:17.672Z,8.50
2023-01-13T14:48:47.166Z,7.75
2023-01-13T14:51:22.640Z,9.18
2023-01-13T14:53:49.912Z,6.00
2023-01-13T14:56:43.075Z,11.40
2023-01-13T14:59:31.090Z,7.88
2023-01-13T15:01:57.685Z,9.85
2023-01-13T15:04:27.361Z,12.75
2023-01-13T15:06:56.894Z,7.82
2023-01-13T15:09:27.007Z,16.52
2023-01-13T15:11:54.334Z,11.85
2023-01-13T15:14:29.923Z,8.70
2023-01-13T15:16:57.066Z,8.60
2023-01-13T15:19:23.745Z,12.82
2023-01-13T15:21:50.111Z,14.23
2023-01-13T15:24:16.756Z,10.13
2023-01-13T15:26:43.182Z,10.60
2023-01-13T15:29:15.141Z,11.85
2023-01-13T15:31:42.252Z,8.70
2023-01-13T15:34:08.642Z,7.65
2023-01-13T15:36:37.140Z,7.63
2023-01-13T15:39:04.059Z,12.30
2023-01-13T15:41:49.264Z,7.30
2023-01-13T15:44:35.524Z,9.52
2023-01-13T15:47:05.635Z,15.30
2023-01-13T15:49:44.116Z,14.52
2023-01-13T15:52:19.976Z,15.57
2023-01-13T15:54:46.434Z,12.95
2023-01-13T15:57:31.915Z,16.02
2023-01-13T16:00:01.788Z,12.05
2023-01-13T16:02:29.797Z,11.70
2023-01-13T16:04:56.506Z,15.02
2023-01-13T16:07:25.184Z,13.13
2023-01-13T16:09:51.910Z,13.60
2023-01-13T16:12:18.508Z,11.82
2023-01-13T16:14:44.900Z,11.10
2023-01-13T16:17:20.319Z,9.98
2023-01-13T16:19:47.380Z,11.65
2023-01-13T16:22:14.681Z,11.05
2023-01-13T16:24:41.421Z,16.30
2023-01-13T16:27:25.160Z,7.07
2023-01-13T16:29:52.656Z,11.32
2023-01-13T16:32:20.920Z,25.05
2023-01-13T16:34:48.003Z,6.97
2023-01-13T16:37:26.044Z,11.70
2023-01-13T16:39:53.810Z,8.73
2023-01-13T16:42:21.030Z,9.52
2023-01-13T16:44:48.543Z,8.38
2023-01-13T16:47:16.625Z,6.60
2023-01-13T16:49:43.603Z,12.32
2023-01-13T16:52:10.192Z,10.70
2023-01-13T16:54:36.697Z,13.68
2023-01-13T16:57:03.425Z,12.25
2023-01-13T16:59:29.999Z,12.40
2023-01-13T17:01:56.479Z,13.02
2023-01-13T17:04:23.564Z,13.40
2023-01-13T17:06:55.815Z,11.52
2023-01-13T17:09:25.058Z,9.20
2023-01-13T17:11:52.303Z,13.80
2023-01-13T17:14:21.718Z,6.40
2023-01-13T17:16:48.218Z,16.20
2023-01-13T17:19:14.814Z,11.82
2023-01-13T17:21:42.239Z,13.30
2023-01-13T17:24:10.699Z,12.25
2023-01-13T17:26:42.017Z,11.50
2023-01-13T17:29:13.313Z,10.85
2023-01-13T17:31:40.145Z,13.13
2023-01-13T17:34:06.729Z,7.57
2023-01-13T17:36:33.132Z,9.68
2023-01-13T17:38:59.593Z,12.38
2023-01-13T17:41:26.634Z,9.63
2023-01-13T17:43:53.655Z,12.18
2023-01-13T17:46:23.053Z,13.38
2023-01-13T17:48:53.659Z,10.55
2023-01-13T17:51:22.589Z,19.42
2023-01-13T17:53:49.037Z,13.00
2023-01-13T17:56:15.787Z,11.30
2023-01-13T17:58:42.693Z,10.73
2023-01-13T18:01:11.249Z,9.18
2023-01-13T18:03:38.793Z,14.55
2023-01-13T18:06:07.132Z,10.50
2023-01-13T18:08:33.562Z,9.52
2023-01-13T18:11:00.714Z,7.38
2023-01-13T18:13:28.037Z,10.07
2023-01-13T18:16:10.747Z,12.90
2023-01-13T18:18:38.505Z,13.02
2023-01-13T18:21:23.949Z,10.15
2023-01-13T18:24:09.544Z,10.93
2023-01-13T18:26:55.022Z,16.27
2023-01-13T18:29:21.808Z,11.75
2023-01-13T18:31:48.321Z,10.93
2023-01-13T18:34:14.819Z,10.52
2023-01-13T18:36:41.321Z,7.70
2023-01-13T18:39:07.709Z,9.65
2023-01-13T18:41:52.615Z,16.75
2023-01-13T18:46:45.550Z,11.13
2023-01-13T18:49:12.021Z,7.00
2023-01-13T18:51:39.488Z,6.65
2023-01-13T18:54:05.975Z,7.57
2023-01-13T18:56:32.414Z,14.45
2023-01-13T18:58:59.138Z,7.38
2023-01-13T19:01:27.496Z,8.43
2023-01-13T19:04:04.958Z,11.70
2023-01-13T19:06:33.662Z,11.68
2023-01-13T19:09:01.849Z,10.57
2023-01-13T19:11:31.284Z,9.15
2023-01-13T19:13:57.689Z,9.05
2023-01-13T19:16:24.129Z,9.43
2023-01-13T19:18:50.659Z,10.73
2023-01-13T19:21:17.038Z,6.40
2023-01-13T19:23:43.640Z,8.45
2023-01-13T19:26:11.550Z,9.68
2023-01-13T19:28:42.486Z,14.10
2023-01-13T19:31:11.032Z,10.05
2023-01-13T19:33:39.509Z,11.13
2023-01-13T19:36:09.626Z,15.68
2023-01-13T19:38:37.421Z,10.80
2023-01-13T19:41:11.496Z,10.88
2023-01-13T19:43:56.388Z,11.80
2023-01-13T19:48:51.819Z,15.90
2023-01-13T19:51:18.251Z,13.02
2023-01-13T19:53:46.891Z,15.95
2023-01-13T19:56:14.427Z,8.48
2023-01-13T19:58:41.989Z,11.10
2023-01-13T20:01:10.174Z,21.88
2023-01-13T20:03:37.696Z,8.05
2023-01-13T20:06:07.626Z,10.20
2023-01-13T20:08:34.067Z,8.77
2023-01-13T20:11:20.600Z,9.93
2023-01-13T20:13:48.046Z,15.45
2023-01-13T20:16:14.796Z,18.10
2023-01-13T20:18:41.349Z,14.35
2023-01-13T20:21:08.086Z,12.90
2023-01-13T20:23:34.616Z,13.25
2023-01-13T20:26:01.453Z,11.43
2023-01-13T20:28:27.869Z,6.85
2023-01-13T20:30:54.371Z,12.18
2023-01-13T20:33:20.794Z,15.85
2023-01-13T20:35:56.721Z,14.77
2023-01-13T20:38:23.210Z,11.32
2023-01-13T20:40:59.123Z,13.32
2023-01-13T20:43:26.806Z,11.02
2023-01-13T20:45:54.207Z,15.90
2023-01-13T20:48:20.709Z,16.30
2023-01-13T20:50:52.924Z,12.27
2023-01-13T20:53:19.302Z,8.73
2023-01-13T20:55:45.734Z,11.73
2023-01-13T20:58:12.178Z,11.82
2023-01-13T21:00:38.575Z,10.75
2023-01-13T21:03:05.307Z,14.55
2023-01-13T21:05:33.217Z,13.10
2023-01-13T21:07:59.866Z,13.75
2023-01-13T21:10:26.290Z,12.90
2023-01-13T21:13:11.202Z,12.82
2023-01-13T21:18:22.801Z,15.60
2023-01-13T21:20:50.757Z,15.18
2023-01-13T21:23:17.182Z,12.90
2023-01-13T21:25:43.571Z,19.48
2023-01-13T21:28:11.175Z,13.07
2023-01-13T21:30:38.867Z,13.60
2023-01-13T21:33:06.137Z,9.13
2023-01-13T21:35:32.614Z,11.18
2023-01-13T21:37:59.149Z,16.17
2023-01-13T21:40:25.697Z,16.73
2023-01-13T21:43:10.479Z,8.82
2023-01-13T21:48:23.378Z,13.18
2023-01-13T21:50:49.771Z,21.88
2023-01-13T21:53:16.141Z,10.52
2023-01-13T21:55:42.551Z,20.25
2023-01-13T21:58:13.219Z,15.60
2023-01-13T22:00:41.816Z,14.10
2023-01-13T22:03:09.586Z,14.15
2023-01-13T22:05:36.579Z,10.98
2023-01-13T22:08:03.505Z,10.82
2023-01-13T22:10:30.613Z,11.73
2023-01-13T22:12:59.587Z,7.38
2023-01-13T22:15:28.255Z,11.85
2023-01-13T22:17:55.531Z,11.10
2023-01-13T22:20:22.746Z,6.20
2023-01-13T22:22:49.852Z,13.30
2023-01-13T22:25:19.967Z,16.85
2023-01-13T22:27:48.151Z,10.18
2023-01-13T22:30:21.768Z,18.92
2023-01-13T22:32:48.537Z,10.90
2023-01-13T22:35:15.718Z,16.40
2023-01-13T22:37:42.944Z,13.38
2023-01-13T22:40:11.603Z,12.30
2023-01-13T22:42:39.978Z,10.23
2023-01-13T22:45:15.634Z,10.90
2023-01-13T22:47:42.206Z,9.85
2023-01-13T22:50:09.275Z,15.38
2023-01-13T22:52:35.890Z,13.88
2023-01-13T22:55:02.475Z,10.82
2023-01-13T22:57:46.679Z,13.73
2023-01-13T23:00:14.896Z,11.48
2023-01-13T23:02:41.634Z,11.57
2023-01-13T23:05:08.701Z,11.38
2023-01-13T23:07:35.628Z,11.30
2023-01-13T23:10:02.589Z,10.70
2023-01-13T23:12:28.981Z,15.00
2023-01-13T23:14:55.483Z,16.17
2023-01-13T23:17:21.917Z,14.45
2023-01-13T23:19:48.349Z,17.23
2023-01-13T23:22:15.547Z,9.20
2023-01-13T23:24:41.981Z,16.10
2023-01-13T23:27:08.370Z,15.68
2023-01-13T23:29:34.803Z,14.25
2023-01-13T23:32:01.283Z,11.32
2023-01-13T23:34:27.881Z,19.45
2023-01-13T23:36:54.292Z,10.85
2023-01-13T23:39:20.711Z,13.07
2023-01-13T23:41:47.092Z,8.90
2023-01-13T23:44:13.571Z,11.65
2023-01-13T23:46:40.058Z,18.23
2023-01-13T23:49:06.722Z,15.10
2023-01-13T23:51:33.486Z,14.45
2023-01-13T23:54:00.567Z,16.45
2023-01-13T23:56:30.905Z,15.32
2023-01-13T23:58:57.894Z,15.52
